ENBR/BGO METAR and TAF weather

Enter ICAO airport designator
Station Type Date Time Source
ENBR METAR 2019/08/24 08:50 UTC NOAA

ENBR 240850Z 13009KT 9999 FEW015 SCT025 BKN035 17/14 Q1022 NOSIG RMK WIND 1200FT 14018KT


Station Type Date Time Source
ENBR Decoded METAR 2019/08/24 08:50 UTC NOAA

Station name not available
Aug 24, 2019 - 04:50 AM EDT / 2019.08.24 0850 UTC
Wind: from the SE (130 degrees) at 10 MPH (9 KT):0
Visibility: greater than 7 mile(s):0
Sky conditions: mostly cloudy
Temperature: 62 F (17 C)
Dew Point: 57 F (14 C)
Relative Humidity: 82%
Pressure (altimeter): 30.18 in. Hg (1022 hPa)
ob: ENBR 240850Z 13009KT 9999 FEW015 SCT025 BKN035 17/14 Q1022 NOSIG RMK WIND 1200FT 14018KT
cycle: 9

Station Type Date Time Source
ENBR TAF 2019/08/24 06:57 UTC NOAA

TAF ENBR 240500Z 2406/2506 15010KT 9999 FEW015 BKN030 PROB30
TEMPO 2407/2412 SHRA SCT015 BKN020CB

Example: see airport list